• Join FlightAware (Why Join?)
  • Login
  • US Flag 
08:32PM EDT


 

Airport Tracker/Info


-or-


 

Live Flight TrackerFlight Track Log ✈ N449ND ✈ 29-Mar-2014 ✈ KFPR - KISM

Flight Track Log - Related Links

Times and Time Zones

All times are in EDT time to prevent confusion due to time zone crossing. See the N449ND flight status page for this flight to view local times or setup timezone preferences in your user account.

Time Position Orientation Groundspeed Altitude Reporting Facility
EDT Latitude Longitude Course Direction KTS MPH feet Rate Location/Type
09:33AM 27.4797 -80.3494 72° East 95 109 600  Level Miami Center
09:34AM 27.4864 -80.3261 72° East 83 96 1,100 420 Climbing Miami Center
09:35AM 27.4953 -80.3031 67° East 83 96 1,500 300 Climbing Miami Center
09:36AM 27.5044 -80.2753 70° East 88 101 1,800 360 Climbing Miami Center
09:37AM 27.5236 -80.2525 47° Northeast 88 101 2,300 420 Climbing Miami Center
09:38AM 27.5511 -80.2439 16° North 93 107 2,700 420 Climbing Miami Center
09:39AM 27.5631 -80.2631 305° West 69 79 3,200 420 Climbing Miami Center
09:40AM 27.5669 -80.2817 283° West 69 79 3,600 360 Climbing Miami Center
09:41AM 27.5747 -80.3031 292° West 69 79 4,000 180 Climbing Miami Center
09:42AM 27.5825 -80.3244 292° West 74 85 4,000  Level Miami Center
09:43AM 27.5925 -80.3481 296° West 79 91 4,000  Level Miami Center
09:44AM 27.6022 -80.3719 295° West 85 98 4,100  Climbing Miami Center
09:45AM 27.6164 -80.3933 307° West 85 98 4,100 -60 Level Miami Center
09:46AM 27.6281 -80.4219 295° West 90 104 4,000 -60 Descending Miami Center
09:47AM 27.6422 -80.4458 304° West 90 104 4,000  Level Miami Center
09:48AM 27.6519 -80.4719 293° West 95 109 4,000  Level Miami Center
09:49AM 27.6639 -80.4956 300° West 95 109 4,000  Level Miami Center
09:50AM 27.6736 -80.5194 295° West 95 109 4,000  Level Miami Center
09:51AM 27.6878 -80.5456 302° West 95 109 4,000  Level Miami Center
09:52AM 27.6975 -80.5719 293° West 95 109 4,000  Level Miami Center
09:53AM 27.7114 -80.5981 301° West 95 109 4,000  Level Miami Center
09:54AM 27.7211 -80.6219 295° West 95 109 4,000  Level Miami Center
09:55AM 27.7372 -80.6481 305° West 95 109 4,000  Level Miami Center
09:56AM 27.7492 -80.6744 297° West 95 109 4,000  Level Miami Center
09:57AM 27.7589 -80.7006 293° West 95 109 4,000  Level Miami Center
09:58AM 27.7708 -80.7219 302° West 95 109 4,000  Level Miami Center
09:59AM 27.7825 -80.7458 299° West 95 109 4,000  Level Miami Center
10:00AM 27.7944 -80.7719 297° West 95 109 4,000  Level Miami Center
10:01AM 27.8083 -80.7983 301° West 95 109 4,000  Level Miami Center
10:02AM 27.8161 -80.8222 290° West 95 109 4,100  Climbing Miami Center
10:04AM 27.8333 -80.8667 294° West 90 104 4,000 -60 Descending Orlando TRACON
10:05AM 27.8500 -80.9000 299° West 85 98 4,000  Level Orlando TRACON
10:06AM 27.8667 -80.9167 319° Northwest 91 105 4,000  Level Orlando TRACON
10:07AM 27.8667 -80.9500 270° West 89 102 4,100  Climbing Orlando TRACON
10:08AM 27.8833 -80.9667 319° Northwest 88 101 4,100  Level Orlando TRACON
10:09AM 27.9000 -80.9833 319° Northwest 90 104 4,100 -60 Level Orlando TRACON
10:10AM 27.9000 -81.0167 270° West 91 105 4,000 -60 Descending Orlando TRACON
10:11AM 27.9167 -81.0500 300° West 89 102 4,000  Level Orlando TRACON
10:12AM 27.9333 -81.0667 319° Northwest 92 106 4,000  Level Orlando TRACON
10:13AM 27.9500 -81.1000 300° West 90 104 4,000  Level Orlando TRACON
10:14AM 27.9500 -81.1167 270° West 84 97 4,100  Climbing Orlando TRACON
10:15AM 27.9833 -81.1333 336° Northwest 125 144 4,100  Level Orlando TRACON
10:16AM 28.0167 -81.1333 360° North 118 136 4,100  Level Orlando TRACON
10:17AM 28.0500 -81.1500 336° Northwest 119 137 4,100  Level Orlando TRACON
10:18AM 28.0833 -81.1500 360° North 119 137 4,100 -60 Level Orlando TRACON
10:19AM 28.1000 -81.1667 319° Northwest 107 123 4,000 -60 Descending Orlando TRACON
10:20AM 28.1167 -81.1833 319° Northwest 84 97 4,000  Level Orlando TRACON
10:21AM 28.1167 -81.2167 270° West 79 91 4,100  Climbing Orlando TRACON
10:22AM 28.1333 -81.2333 319° Northwest 80 92 4,000 -60 Descending Orlando TRACON
10:23AM 28.1333 -81.2667 270° West 79 91 4,000  Level Orlando TRACON
10:24AM 28.1333 -81.2833 270° West 79 91 4,100  Climbing Orlando TRACON
10:25AM 28.1500 -81.3000 319° Northwest 82 94 4,100 -60 Level Orlando TRACON
10:26AM 28.1500 -81.3333 270° West 80 92 4,000 -120 Descending Orlando TRACON
10:28AM 28.1788 -81.3547 281° West  Level Estimated
10:35AM 28.2833 -81.4333 281° West  Level FlightAware Approximate
10:36AM 28.2898 -81.4371 319° Northwest  Level Estimated
10:37AM 28.2898 -81.4371 153° Southeast  Level Estimated
10:38AM 28.2898 -81.4371 153° Southeast  Level Estimated
10:39AM 28.2898 -81.4371 281° West  Level Estimated
10:40AM 28.2898 -81.4371 153° Southeast  Level Estimated
10:41AM 28.2898 -81.4371 153° Southeast  Level Estimated
10:42AM 28.2898 -81.4371 153° Southeast  Level Estimated
10:43AM 28.2898 -81.4371 281° West  Level Estimated
10:44AM 28.2898 -81.4371 153° Southeast  Level Estimated
10:45AM 28.2898 -81.4371 153° Southeast  Level Estimated
10:46AM 28.2898 -81.4371 153° Southeast  Level Estimated
10:47AM 28.2898 -81.4371 281° West  Level Estimated
10:48AM 28.2898 -81.4371 153° Southeast  Level Estimated
10:49AM 28.2898 -81.4371 153° Southeast  Level Estimated
10:50AM 28.2898 -81.4371 153° Southeast  Level Estimated
10:51AM 28.2898 -81.4371 281° West  Level Estimated
10:52AM 28.2898 -81.4371 153° Southeast  Level Estimated
10:53AM 28.2898 -81.4371 153° Southeast  Level Estimated
10:54AM 28.2898 -81.4371 153° Southeast  Level Estimated